Time;durP1;ratioP1;P1;durP2;ratioP2;P2;SDS_P1;SDS_P2;PMS_P1;PMS_P2;Temp;Humidity;BMP_temperature;BMP_pressure;BME280_temperature;BME280_humidity;BME280_pressure;Samples;Min_cycle;Max_cycle;Signal;HPM_P1;HPM_P2
2022/09/27 00:09:33;;;;;;;;;;;;;;;11.62;100.00;99108.00;20948505;28;20468;-64
2022/09/27 00:19:57;;;;;;;;;;;;;;;11.47;100.00;99099.00;20961198;28;19928;-64
2022/09/27 00:30:19;;;;;;;;;;;;;;;11.48;100.00;99105.88;20965589;28;19982;-63
2022/09/27 00:40:41;;;;;;;6.90;2.90;;;;;;;11.40;100.00;99097.94;20967866;28;20439;-65
2022/09/27 00:51:05;;;;;;;7.82;2.38;;;;;;;11.31;100.00;99098.81;20967507;28;20102;-64
2022/09/27 01:01:29;;;;;;;7.15;1.42;;;;;;;11.31;100.00;99093.59;20968733;28;20072;-66
2022/09/27 01:12:03;;;;;;;4.07;1.20;;;;;;;11.24;100.00;99096.94;20967496;28;20053;-62
2022/09/27 01:22:44;;;;;;;8.02;0.93;;;;;;;11.15;100.00;99098.63;20960935;28;20037;-62
2022/09/27 01:33:12;;;;;;;0.97;0.40;;;;;;;11.10;100.00;99095.63;20963768;28;20094;-62
2022/09/27 01:43:36;;;;;;;;;;;;;;;11.08;100.00;99092.34;20967089;28;20091;-61
2022/09/27 01:54:01;;;;;;;;;;;;;;;10.92;100.00;99099.94;20960453;28;19967;-61
2022/09/27 02:04:24;;;;;;;;;;;;;;;11.02;100.00;99098.16;20960368;28;19920;-62
2022/09/27 02:14:48;;;;;;;;;;;;;;;10.94;100.00;99094.59;20953032;28;19920;-61
2022/09/27 02:25:22;;;;;;;;;;;;;;;10.99;100.00;99098.44;20958930;28;20515;-61
2022/09/27 02:35:45;;;;;;;;;;;;;;;11.00;100.00;99104.44;20960487;28;19959;-62
2022/09/27 02:46:12;;;;;;;;;;;;;;;11.01;100.00;99112.16;20955544;28;19955;-61
2022/09/27 02:56:39;;;;;;;;;;;;;;;11.12;100.00;99096.31;20941493;28;20369;-61
2022/09/27 03:07:00;;;;;;;;;;;;;;;11.12;100.00;99085.88;20956494;28;19920;-61
2022/09/27 03:17:22;;;;;;;;;;;;;;;10.98;100.00;99083.75;20957659;28;19974;-62
2022/09/27 03:27:43;;;;;;;;;;;;;;;10.94;100.00;99082.38;20962082;28;19967;-61
2022/09/27 03:38:06;;;;;;;;;;;;;;;10.84;100.00;99083.41;20957901;28;19959;-61
2022/09/27 03:48:29;;;;;;;;;;;;;;;10.78;100.00;99084.78;20948666;28;20451;-61
2022/09/27 03:58:51;;;;;;;;;;;;;;;10.72;100.00;99085.38;20975414;28;19927;-61
2022/09/27 04:09:12;;;;;;;;;;;;;;;10.59;100.00;99087.47;20973483;28;20523;-61
2022/09/27 04:19:35;;;;;;;;;;;;;;;10.62;100.00;99079.34;20973048;28;19974;-61
2022/09/27 04:29:56;;;;;;;;;;;;;;;10.72;100.00;99085.38;20974315;28;19920;-61
2022/09/27 04:40:19;;;;;;;;;;;;;;;10.63;100.00;99095.81;20959744;28;19970;-61
2022/09/27 04:50:40;;;;;;;;;;;;;;;10.63;100.00;99101.81;20969968;28;19924;-62
2022/09/27 05:01:02;;;;;;;;;;;;;;;10.50;100.00;99099.66;20965525;28;20368;-61
2022/09/27 05:11:25;;;;;;;;;;;;;;;10.54;100.00;99123.53;20968497;28;19920;-61
2022/09/27 05:21:46;;;;;;;;;;;;;;;10.55;100.00;99117.34;20963470;28;19974;-61
2022/09/27 05:32:08;;;;;;;;;;;;;;;10.53;100.00;99116.66;20966664;28;19921;-61
2022/09/27 05:42:29;;;;;;;;;;;;;;;10.45;100.00;99127.94;20960859;28;20328;-62
2022/09/27 05:52:51;;;;;;;;;;;;;;;10.49;100.00;99140.53;20946224;28;19982;-62
2022/09/27 06:03:13;;;;;;;;;;;;;;;10.51;100.00;99150.81;20986143;28;20610;-62
2022/09/27 06:13:40;;;;;;;;;;;;;;;10.41;100.00;99150.00;20957147;28;19920;-62
2022/09/27 06:24:02;;;;;;;;;;;;;;;10.52;100.00;99155.06;20969344;28;19928;-62
2022/09/27 06:34:24;;;;;;;;;;;;;;;10.47;100.00;99154.69;20961562;28;19921;-62
2022/09/27 06:44:48;;;;;;;;;;;;;;;10.60;100.00;99162.06;20959188;28;20009;-62
2022/09/27 06:55:10;;;;;;;;;;;;;;;10.64;100.00;99166.00;20966084;28;19971;-62
2022/09/27 07:05:32;;;;;;;;;;;;;;;10.84;100.00;99188.47;20967027;28;19982;-62
2022/09/27 07:15:53;;;;;;;;;;;;;;;10.97;100.00;99196.81;20959850;28;20423;-62
2022/09/27 07:26:15;;;;;;;;;;;;;;;10.95;100.00;99203.94;20962606;28;20418;-62
2022/09/27 07:36:36;;;;;;;;;;;;;;;11.00;100.00;99213.94;20977228;28;19970;-62
2022/09/27 07:46:58;;;;;;;;;;;;;;;10.86;100.00;99217.84;20963992;28;19928;-62
2022/09/27 07:57:21;;;;;;;;;;;;;;;10.86;100.00;99230.03;20975912;28;19928;-62
2022/09/27 08:07:43;;;;;;;;;;;;;;;10.74;100.00;99239.81;20974194;28;19970;-63
2022/09/27 08:18:05;;;;;;;;;;;;;;;10.74;100.00;99238.97;20972886;28;19921;-63
2022/09/27 08:28:27;;;;;;;;;;;;;;;10.88;100.00;99262.84;20964676;28;19974;-63
2022/09/27 08:38:49;;;;;;;;;;;;;;;10.78;100.00;99267.22;20967442;28;20442;-63
2022/09/27 08:49:17;;;;;;;;;;;;;;;10.82;100.00;99273.81;20962804;28;20339;-63
2022/09/27 08:59:40;;;;;;;;;;;;;;;10.77;100.00;99291.63;20971580;28;19966;-63
2022/09/27 09:10:12;;;;;;;;;;;;;;;10.77;100.00;99307.28;20967950;28;19982;-63
2022/09/27 09:20:53;;;;;;;;;;;;;;;10.90;100.00;99313.06;20965705;28;20257;-63
2022/09/27 09:31:14;;;;;;;;;;;;;;;10.80;100.00;99327.06;20967011;28;19924;-62
2022/09/27 09:41:42;;;;;;;;;;;;;;;10.75;100.00;99329.22;20967505;28;20388;-62
2022/09/27 09:52:23;;;;;;;;;;;;;;;10.91;100.00;99319.09;20960857;28;20388;-62
2022/09/27 10:02:46;;;;;;;;;;;;;;;11.03;100.00;99324.03;20963978;28;20422;-62
2022/09/27 10:13:13;;;;;;;;;;;;;;;10.83;100.00;99322.38;20977794;28;19920;-63
2022/09/27 10:23:34;;;;;;;;;;;;;;;11.15;100.00;99322.91;20974230;28;19924;-61
2022/09/27 10:34:03;;;;;;;;;;;;;;;11.24;100.00;99324.69;20962900;28;19926;-63
2022/09/27 10:44:26;;;;;;;;;;;;;;;11.37;100.00;99327.81;20959137;28;19921;-63
2022/09/27 10:54:59;;;;;;;;;;;;;;;11.58;100.00;99315.44;20952202;28;19931;-63
2022/09/27 11:05:26;;;;;;;;;;;;;;;11.58;100.00;99313.63;20961604;28;19928;-61
2022/09/27 11:16:06;;;;;;;;;;;;;;;11.58;100.00;99323.28;20955586;28;19924;-62
2022/09/27 11:26:37;;;;;;;;;;;;;;;11.66;100.00;99323.38;20956144;28;19924;-63
2022/09/27 11:37:08;;;;;;;;;;;;;;;11.86;100.00;99330.19;20972277;28;19924;-63
2022/09/27 11:47:55;;;;;;;;;;;;;;;12.03;100.00;99329.44;20960220;28;19928;-63
2022/09/27 11:58:24;;;;;;;;;;;;;;;12.17;100.00;99328.94;20944440;28;19970;-65
2022/09/27 12:09:01;;;;;;;;;;;;;;;12.07;100.00;99322.94;20950217;28;19927;-63
2022/09/27 12:19:26;;;;;;;;;;;;;;;12.09;100.00;99324.44;20985552;28;20308;-64
2022/09/27 12:29:49;;;;;;;;;;;;;;;11.62;100.00;99327.25;20984754;28;19920;-63
2022/09/27 12:40:13;;;;;;;;;;;;;;;11.59;100.00;99348.41;20971461;28;19929;-63
2022/09/27 12:50:41;;;;;;;;;;;;;;;11.07;100.00;99346.25;20966007;28;19978;-63
2022/09/27 13:01:13;;;;;;;;;;;;;;;11.26;100.00;99350.66;20956193;28;20396;-62
2022/09/27 13:11:54;;;;;;;;;;;;;;;11.38;100.00;99342.50;20947679;28;20003;-63
2022/09/27 13:22:27;;;;;;;;;;;;;;;11.42;100.00;99356.13;20951728;28;20273;-63
2022/09/27 13:33:07;;;;;;;;;;;;;;;11.46;100.00;99357.47;20955721;28;19943;-63
2022/09/27 13:43:40;;;;;;;;;;;;;;;11.64;100.00;99356.66;20949009;28;20565;-64
2022/09/27 13:54:22;;;;;;;;;;;;;;;12.05;100.00;99366.69;20950122;28;19936;-63
2022/09/27 14:04:47;;;;;;;;;;;;;;;12.23;100.00;99359.69;20968339;28;19924;-63
2022/09/27 14:15:16;;;;;;;;;;;;;;;12.42;98.21;99362.22;20950670;28;20361;-64
2022/09/27 14:25:43;;;;;;;;;;;;;;;12.79;97.18;99356.75;20948946;28;19928;-63
2022/09/27 14:47:28;;;;;;;;;;;;;;;13.12;86.53;99374.41;20936095;28;19932;-62
2022/09/27 14:57:51;;;;;;;;;;;;;;;12.41;91.31;99381.47;20915583;28;20426;-63
2022/09/27 15:08:14;;;;;;;;;;;;;;;12.00;93.90;99381.94;20976193;28;19924;-63
2022/09/27 15:18:43;;;;;;;;;;;;;;;11.83;96.02;99387.91;20943395;28;19924;-63
2022/09/27 15:29:05;;;;;;;;;;;;;;;12.11;100.00;99386.97;20943892;28;19928;-63
2022/09/27 15:39:32;;;;;;;;;;;;;;;12.01;100.00;99396.66;20938029;28;19935;-63
2022/09/27 15:49:53;;;;;;;;;;;;;;;11.92;100.00;99410.56;20965497;28;19924;-63
2022/09/27 16:00:16;;;;;;;;;;;;;;;11.57;100.00;99415.56;20960932;28;19924;-63
2022/09/27 16:10:39;;;;;;;;;;;;;;;11.35;100.00;99422.84;20963060;28;19924;-64
2022/09/27 16:21:01;;;;;;;;;;;;;;;11.10;100.00;99419.00;20956865;28;19928;-63
2022/09/27 16:31:22;;;;;;;;;;;;;;;11.08;100.00;99420.91;20963475;28;20002;-63
2022/09/27 16:41:43;;;;;;;;;;;;;;;10.97;100.00;99425.44;20947482;28;19924;-63
2022/09/27 16:52:05;;;;;;;;;;;;;;;11.13;100.00;99423.94;20937904;28;19951;-63
2022/09/27 17:02:26;;;;;;;;;;;;;;;10.66;100.00;99429.91;20952192;28;20779;-63
2022/09/27 17:12:48;;;;;;;;;;;;;;;10.66;100.00;99429.91;20949926;28;20501;-63
2022/09/27 17:23:09;;;;;;;;;;;;;;;10.50;100.00;99428.75;20941701;28;20497;-64
2022/09/27 17:33:31;;;;;;;;;;;;;;;10.47;100.00;99438.63;20949198;28;19963;-64
2022/09/27 17:43:55;;;;;;;;;;;;;;;10.19;100.00;99444.56;20951627;28;20013;-63
2022/09/27 17:54:19;;;;;;;0.70;0.52;;;;;;;10.08;100.00;99442.84;20952214;28;20753;-65
2022/09/27 18:04:40;;;;;;;1.05;0.70;;;;;;;9.95;100.00;99446.56;20955986;28;20489;-66
2022/09/27 18:15:03;;;;;;;2.67;0.77;;;;;;;9.77;100.00;99442.91;20961772;28;20633;-66
2022/09/27 18:25:24;;;;;;;1.88;1.00;;;;;;;9.72;100.00;99442.47;20961014;28;20429;-66
2022/09/27 18:35:46;;;;;;;1.27;0.80;;;;;;;9.81;100.00;99444.31;20957629;28;20044;-66
2022/09/27 18:46:08;;;;;;;;;;;;;;;9.82;100.00;99436.34;20964813;28;20098;-67
2022/09/27 18:56:51;;;;;;;1.20;0.98;;;;;;;9.41;100.00;99453.75;20961409;28;20502;-64
2022/09/27 19:07:12;;;;;;;2.75;1.23;;;;;;;9.35;100.00;99451.63;20959595;28;20044;-63
2022/09/27 19:17:34;;;;;;;2.70;1.20;;;;;;;9.35;100.00;99453.44;20959187;28;20052;-63
2022/09/27 19:27:55;;;;;;;1.33;1.10;;;;;;;9.29;100.00;99452.16;20967495;28;20052;-64
2022/09/27 19:38:17;;;;;;;3.20;1.23;;;;;;;9.32;100.00;99459.69;20974867;28;20040;-63
2022/09/27 19:48:38;;;;;;;1.47;0.80;;;;;;;9.22;100.00;99456.19;20975116;28;20087;-64
2022/09/27 19:59:00;;;;;;;;;;;;;;;8.90;100.00;99460.53;20973791;28;20052;-64
2022/09/27 20:09:27;;;;;;;;;;;;;;;9.03;100.00;99450.81;20968738;28;19994;-65
2022/09/27 20:19:48;;;;;;;;;;;;;;;9.02;100.00;99451.75;20949804;28;20327;-64
2022/09/27 20:30:10;;;;;;;;;;;;;;;8.96;100.00;99454.00;20966359;28;20246;-63
2022/09/27 20:40:31;;;;;;;;;;;;;;;8.91;100.00;99449.19;20968314;28;20385;-62
2022/09/27 20:50:57;;;;;;;;;;;;;;;9.08;100.00;99451.28;20957666;28;19928;-63
2022/09/27 21:01:23;;;;;;;;;;;;;;;9.05;100.00;99443.72;20971052;28;19924;-62
2022/09/27 21:11:45;;;;;;;;;;;;;;;9.06;100.00;99440.16;20968698;28;19920;-63
2022/09/27 21:22:07;;;;;;;;;;;;;;;9.08;100.00;99440.88;20971887;28;19946;-62
2022/09/27 21:32:28;;;;;;;;;;;;;;;8.88;100.00;99439.03;20968220;28;19920;-63
2022/09/27 21:42:50;;;;;;;;;;;;;;;8.99;100.00;99444.22;20964587;28;19924;-63
2022/09/27 21:53:17;;;;;;;;;;;;;;;9.06;100.00;99445.38;20960987;28;19921;-63
2022/09/27 22:03:41;;;;;;;;;;;;;;;8.87;100.00;99449.56;20959044;28;19971;-63
2022/09/27 22:14:05;;;;;;;;;;;;;;;8.87;100.00;99445.22;20975732;28;20452;-64
2022/09/27 22:24:27;;;;;;;;;;;;;;;8.84;100.00;99444.59;20969880;28;20335;-63
2022/09/27 22:34:48;;;;;;;;;;;;;;;8.76;100.00;99437.41;20960857;28;19924;-64
2022/09/27 22:45:10;;;;;;;;;;;;;;;8.69;100.00;99425.88;20958876;28;19920;-64
2022/09/27 22:55:31;;;;;;;;;;;;;;;8.58;100.00;99421.66;20955549;28;20447;-64
2022/09/27 23:06:00;;;;;;;;;;;;;;;8.61;100.00;99414.44;20957227;28;19924;-62
2022/09/27 23:16:24;;;;;;;;;;;;;;;8.52;100.00;99401.34;21005734;28;19966;-63
2022/09/27 23:27:40;;;;;;;;;;;;;;;8.35;100.00;99397.50;20956965;28;19955;-63
2022/09/27 23:37:28;;;;;;;;;;;;;;;8.21;100.00;99396.91;20960912;28;20613;-63
2022/09/27 23:47:49;;;;;;;;;;;;;;;8.10;100.00;99395.09;20954226;28;20303;-63
2022/09/27 23:58:11;;;;;;;;;;;;;;;8.03;100.00;99387.91;20959418;28;19924;-63
